AEE2AM LGKL-LGAV
Flight info
| Callsign | AEE2AM |
|---|---|
| Flight time | 0h 28m |
| Altitude | 20000 |
| Route | IPTAG Y115 ASTOV |
| Aircraft | A320/M-SDE3FGHIRWY/LB1 |
Departure
| Time | 2026-04-25 14:15 |
|---|---|
| Airport | Kalamata Airport (LGKL) |
Arrival
| Time | 2026-04-25 14:43 |
|---|---|
| Airport | Athens Eleftherios Venizelos International Airport (LGAV) |
| Time | Latitude | Longitude | Altitude | Speed | Heading |
|---|---|---|---|---|---|
| 2026-04-25 13:36 | 37.05538 | 22.03247 | 34 ft | 0 kts | 283° |
| 2026-04-25 14:07 | 37.05532 | 22.03226 | 35 ft | 5 kts | 244° |
| 2026-04-25 14:07 | 37.05514 | 22.03163 | 35 ft | 11 kts | 277° |
| 2026-04-25 14:07 | 37.05533 | 22.03072 | 33 ft | 14 kts | 285° |
| 2026-04-25 14:07 | 37.05550 | 22.02993 | 34 ft | 8 kts | 286° |
| 2026-04-25 14:08 | 37.05599 | 22.02956 | 34 ft | 10 kts | 348° |
| 2026-04-25 14:08 | 37.05691 | 22.02934 | 33 ft | 16 kts | 349° |
| 2026-04-25 14:08 | 37.05815 | 22.02905 | 32 ft | 20 kts | 349° |
| 2026-04-25 14:08 | 37.05957 | 22.02872 | 34 ft | 23 kts | 349° |
| 2026-04-25 14:09 | 37.06096 | 22.02840 | 32 ft | 16 kts | 349° |
| 2026-04-25 14:09 | 37.06214 | 22.02812 | 34 ft | 16 kts | 349° |
| 2026-04-25 14:09 | 37.06337 | 22.02784 | 34 ft | 20 kts | 349° |
| 2026-04-25 14:09 | 37.06385 | 22.02773 | 34 ft | 22 kts | 349° |
| 2026-04-25 14:10 | 37.06621 | 22.02717 | 33 ft | 15 kts | 349° |
| 2026-04-25 14:10 | 37.06738 | 22.02691 | 34 ft | 10 kts | 349° |
| 2026-04-25 14:10 | 37.06825 | 22.02670 | 34 ft | 12 kts | 349° |
| 2026-04-25 14:10 | 37.06925 | 22.02646 | 33 ft | 17 kts | 349° |
| 2026-04-25 14:11 | 37.07046 | 22.02618 | 32 ft | 20 kts | 349° |
| 2026-04-25 14:11 | 37.07116 | 22.02602 | 34 ft | 10 kts | 349° |
| 2026-04-25 14:11 | 37.07143 | 22.02596 | 34 ft | 12 kts | 349° |
| 2026-04-25 14:11 | 37.07207 | 22.02580 | 34 ft | 16 kts | 349° |
| 2026-04-25 14:12 | 37.07340 | 22.02549 | 34 ft | 22 kts | 349° |
| 2026-04-25 14:12 | 37.07505 | 22.02511 | 34 ft | 23 kts | 349° |
| 2026-04-25 14:12 | 37.07661 | 22.02475 | 34 ft | 11 kts | 349° |
| 2026-04-25 14:12 | 37.07759 | 22.02452 | 34 ft | 17 kts | 349° |
| 2026-04-25 14:13 | 37.07839 | 22.02433 | 34 ft | 12 kts | 349° |
| 2026-04-25 14:13 | 37.07899 | 22.02366 | 35 ft | 12 kts | 275° |
| 2026-04-25 14:13 | 37.07864 | 22.02302 | 34 ft | 11 kts | 182° |
| 2026-04-25 14:13 | 37.07813 | 22.02313 | 33 ft | 0 kts | 169° |
| 2026-04-25 14:14 | 37.07806 | 22.02315 | 33 ft | 8 kts | 169° |
| 2026-04-25 14:14 | 37.07517 | 22.02383 | 31 ft | 77 kts | 169° |
| 2026-04-25 14:14 | 37.06791 | 22.02552 | 33 ft | 131 kts | 169° |
| 2026-04-25 14:14 | 37.05798 | 22.02794 | 363 ft | 146 kts | 166° |
| 2026-04-25 14:15 | 37.05134 | 22.02952 | 765 ft | 147 kts | 166° |
| 2026-04-25 14:15 | 37.04115 | 22.03187 | 1431 ft | 150 kts | 170° |
| 2026-04-25 14:15 | 37.02708 | 22.03513 | 2094 ft | 165 kts | 168° |
| 2026-04-25 14:15 | 37.01496 | 22.03800 | 2438 ft | 187 kts | 168° |
| 2026-04-25 14:16 | 37.00140 | 22.04120 | 2731 ft | 210 kts | 171° |
| 2026-04-25 14:16 | 36.98632 | 22.04469 | 3048 ft | 229 kts | 170° |
| 2026-04-25 14:16 | 36.96997 | 22.04849 | 3490 ft | 246 kts | 170° |
| 2026-04-25 14:16 | 36.95291 | 22.05247 | 4191 ft | 252 kts | 168° |
| 2026-04-25 14:17 | 36.93574 | 22.05647 | 4930 ft | 256 kts | 168° |
| 2026-04-25 14:17 | 36.91812 | 22.06057 | 5697 ft | 259 kts | 167° |
| 2026-04-25 14:17 | 36.90027 | 22.06474 | 6542 ft | 263 kts | 166° |
| 2026-04-25 14:17 | 36.88214 | 22.06899 | 7368 ft | 267 kts | 166° |
| 2026-04-25 14:18 | 36.86378 | 22.07328 | 8219 ft | 270 kts | 166° |
| 2026-04-25 14:18 | 36.84516 | 22.07765 | 8844 ft | 275 kts | 166° |
| 2026-04-25 14:18 | 36.82631 | 22.08209 | 9022 ft | 277 kts | 165° |
| 2026-04-25 14:18 | 36.80825 | 22.09148 | 9393 ft | 287 kts | 141° |
| 2026-04-25 14:19 | 36.79460 | 22.10940 | 10117 ft | 287 kts | 117° |
| 2026-04-25 14:19 | 36.78792 | 22.13330 | 10406 ft | 302 kts | 92° |
| 2026-04-25 14:19 | 36.79108 | 22.15967 | 10602 ft | 319 kts | 65° |
| 2026-04-25 14:19 | 36.80458 | 22.18246 | 10751 ft | 340 kts | 39° |
| 2026-04-25 14:20 | 36.82559 | 22.19777 | 10871 ft | 361 kts | 27° |
| 2026-04-25 14:20 | 36.84082 | 22.20681 | 11060 ft | 370 kts | 25° |
| 2026-04-25 14:20 | 36.87284 | 22.22446 | 11790 ft | 378 kts | 24° |
| 2026-04-25 14:20 | 36.89680 | 22.23729 | 12386 ft | 382 kts | 24° |
| 2026-04-25 14:21 | 36.92132 | 22.25052 | 12997 ft | 386 kts | 25° |
| 2026-04-25 14:21 | 36.94598 | 22.26405 | 13616 ft | 389 kts | 25° |
| 2026-04-25 14:21 | 36.97091 | 22.27797 | 14150 ft | 394 kts | 25° |
| 2026-04-25 14:21 | 36.99592 | 22.29212 | 14688 ft | 397 kts | 25° |
| 2026-04-25 14:22 | 37.02128 | 22.30654 | 15229 ft | 400 kts | 25° |
| 2026-04-25 14:22 | 37.04674 | 22.32105 | 15735 ft | 404 kts | 25° |
| 2026-04-25 14:22 | 37.07242 | 22.33567 | 16246 ft | 407 kts | 25° |
| 2026-04-25 14:22 | 37.09833 | 22.35042 | 16768 ft | 411 kts | 25° |
| 2026-04-25 14:23 | 37.12452 | 22.36533 | 17269 ft | 414 kts | 25° |
| 2026-04-25 14:23 | 37.15094 | 22.38036 | 17769 ft | 418 kts | 25° |
| 2026-04-25 14:23 | 37.17744 | 22.39544 | 17963 ft | 420 kts | 25° |
| 2026-04-25 14:23 | 37.20422 | 22.41068 | 18011 ft | 424 kts | 25° |
| 2026-04-25 14:24 | 37.23081 | 22.42581 | 17994 ft | 425 kts | 25° |
| 2026-04-25 14:24 | 37.25786 | 22.44121 | 17998 ft | 426 kts | 25° |
| 2026-04-25 14:24 | 37.28483 | 22.45659 | 17992 ft | 426 kts | 25° |
| 2026-04-25 14:24 | 37.31181 | 22.47200 | 18001 ft | 425 kts | 25° |
| 2026-04-25 14:25 | 37.33866 | 22.48735 | 17999 ft | 424 kts | 25° |
| 2026-04-25 14:25 | 37.36497 | 22.50397 | 18002 ft | 423 kts | 33° |
| 2026-04-25 14:25 | 37.38804 | 22.52669 | 18016 ft | 422 kts | 45° |
| 2026-04-25 14:25 | 37.40119 | 22.54526 | 18005 ft | 421 kts | 53° |
| 2026-04-25 14:26 | 37.42036 | 22.58763 | 18000 ft | 422 kts | 68° |
| 2026-04-25 14:26 | 37.42818 | 22.62311 | 18001 ft | 423 kts | 80° |
| 2026-04-25 14:26 | 37.43159 | 22.65986 | 17997 ft | 423 kts | 83° |
| 2026-04-25 14:26 | 37.43473 | 22.69675 | 17995 ft | 423 kts | 83° |
| 2026-04-25 14:27 | 37.43784 | 22.73355 | 17987 ft | 423 kts | 83° |
| 2026-04-25 14:27 | 37.44095 | 22.77041 | 17993 ft | 424 kts | 83° |
| 2026-04-25 14:27 | 37.44398 | 22.80680 | 18002 ft | 424 kts | 83° |
| 2026-04-25 14:27 | 37.44704 | 22.84372 | 17888 ft | 425 kts | 83° |
| 2026-04-25 14:28 | 37.45012 | 22.88066 | 17619 ft | 424 kts | 83° |
| 2026-04-25 14:28 | 37.45321 | 22.91751 | 17355 ft | 422 kts | 83° |
| 2026-04-25 14:28 | 37.45629 | 22.95421 | 17095 ft | 421 kts | 83° |
| 2026-04-25 14:28 | 37.45934 | 22.99073 | 16757 ft | 418 kts | 83° |
| 2026-04-25 14:29 | 37.46235 | 23.02705 | 15837 ft | 415 kts | 83° |
| 2026-04-25 14:29 | 37.46528 | 23.06306 | 15004 ft | 412 kts | 83° |
| 2026-04-25 14:29 | 37.46815 | 23.09878 | 14196 ft | 408 kts | 83° |
| 2026-04-25 14:29 | 37.47097 | 23.13398 | 13448 ft | 402 kts | 83° |
| 2026-04-25 14:30 | 37.47377 | 23.16886 | 12686 ft | 397 kts | 83° |
| 2026-04-25 14:30 | 37.48641 | 23.23541 | 11327 ft | 385 kts | 65° |
| 2026-04-25 14:30 | 37.49858 | 23.26443 | 11194 ft | 365 kts | 61° |
| 2026-04-25 14:31 | 37.51045 | 23.29168 | 11071 ft | 346 kts | 62° |
| 2026-04-25 14:31 | 37.52163 | 23.31776 | 10948 ft | 330 kts | 62° |
| 2026-04-25 14:31 | 37.53224 | 23.34273 | 10826 ft | 316 kts | 62° |
| 2026-04-25 14:31 | 37.54243 | 23.36665 | 10701 ft | 304 kts | 62° |
| 2026-04-25 14:32 | 37.55231 | 23.38976 | 10586 ft | 293 kts | 62° |
| 2026-04-25 14:32 | 37.56181 | 23.41193 | 10458 ft | 283 kts | 62° |
| 2026-04-25 14:32 | 37.57097 | 23.43322 | 10270 ft | 276 kts | 62° |
| 2026-04-25 14:32 | 37.58020 | 23.45464 | 10212 ft | 274 kts | 62° |
| 2026-04-25 14:33 | 37.58916 | 23.47546 | 10134 ft | 274 kts | 62° |
| 2026-04-25 14:33 | 37.59823 | 23.49655 | 10023 ft | 273 kts | 62° |
| 2026-04-25 14:33 | 37.60714 | 23.51733 | 9902 ft | 265 kts | 62° |
| 2026-04-25 14:33 | 37.61575 | 23.53744 | 9764 ft | 256 kts | 62° |
| 2026-04-25 14:34 | 37.62413 | 23.55704 | 9627 ft | 248 kts | 62° |
| 2026-04-25 14:34 | 37.63224 | 23.57600 | 9406 ft | 244 kts | 62° |
| 2026-04-25 14:34 | 37.64027 | 23.59473 | 8948 ft | 242 kts | 62° |
| 2026-04-25 14:34 | 37.64826 | 23.61334 | 8462 ft | 241 kts | 62° |
| 2026-04-25 14:35 | 37.65621 | 23.63189 | 7967 ft | 239 kts | 61° |
| 2026-04-25 14:35 | 37.66411 | 23.65035 | 7463 ft | 238 kts | 61° |
| 2026-04-25 14:35 | 37.67194 | 23.66867 | 6996 ft | 237 kts | 61° |
| 2026-04-25 14:35 | 37.67980 | 23.68700 | 6503 ft | 236 kts | 60° |
| 2026-04-25 14:36 | 37.68758 | 23.70516 | 5995 ft | 235 kts | 60° |
| 2026-04-25 14:36 | 37.69562 | 23.72311 | 5467 ft | 233 kts | 53° |
| 2026-04-25 14:36 | 37.70654 | 23.73757 | 5181 ft | 222 kts | 38° |
| 2026-04-25 14:36 | 37.71842 | 23.74910 | 5033 ft | 212 kts | 36° |
| 2026-04-25 14:37 | 37.73026 | 23.76020 | 4959 ft | 213 kts | 38° |
| 2026-04-25 14:37 | 37.74214 | 23.77139 | 4751 ft | 212 kts | 38° |
| 2026-04-25 14:37 | 37.75390 | 23.78249 | 4496 ft | 210 kts | 38° |
| 2026-04-25 14:37 | 37.76558 | 23.79353 | 4213 ft | 210 kts | 38° |
| 2026-04-25 14:38 | 37.77743 | 23.80473 | 3926 ft | 215 kts | 38° |
| 2026-04-25 14:38 | 37.78933 | 23.81598 | 3633 ft | 211 kts | 38° |
| 2026-04-25 14:38 | 37.80083 | 23.82685 | 3369 ft | 202 kts | 38° |
| 2026-04-25 14:38 | 37.81185 | 23.83729 | 3099 ft | 193 kts | 38° |
| 2026-04-25 14:39 | 37.82236 | 23.84724 | 2849 ft | 186 kts | 37° |
| 2026-04-25 14:39 | 37.83255 | 23.85689 | 2618 ft | 175 kts | 37° |
| 2026-04-25 14:39 | 37.84166 | 23.86551 | 2388 ft | 154 kts | 38° |
| 2026-04-25 14:39 | 37.84985 | 23.87327 | 2185 ft | 143 kts | 38° |
| 2026-04-25 14:40 | 37.85771 | 23.88073 | 2007 ft | 140 kts | 37° |
| 2026-04-25 14:40 | 37.86532 | 23.88796 | 1838 ft | 134 kts | 36° |
| 2026-04-25 14:40 | 37.87137 | 23.89369 | 1706 ft | 133 kts | 37° |
| 2026-04-25 14:40 | 37.87871 | 23.90067 | 1486 ft | 133 kts | 38° |
| 2026-04-25 14:41 | 37.88601 | 23.90762 | 1282 ft | 132 kts | 37° |
| 2026-04-25 14:41 | 37.89345 | 23.91469 | 1055 ft | 133 kts | 37° |
| 2026-04-25 14:41 | 37.90085 | 23.92170 | 910 ft | 133 kts | 38° |
| 2026-04-25 14:41 | 37.90822 | 23.92872 | 742 ft | 131 kts | 36° |
| 2026-04-25 14:42 | 37.91560 | 23.93565 | 520 ft | 130 kts | 37° |
| 2026-04-25 14:42 | 37.91802 | 23.93794 | 486 ft | 129 kts | 37° |
| 2026-04-25 14:42 | 37.92995 | 23.94937 | 297 ft | 120 kts | 36° |
| 2026-04-25 14:42 | 37.93540 | 23.95453 | 283 ft | 72 kts | 37° |
| 2026-04-25 14:43 | 37.93772 | 23.95664 | 279 ft | 28 kts | 26° |
| 2026-04-25 14:43 | 37.93955 | 23.95724 | 286 ft | 25 kts | 7° |
| 2026-04-25 14:43 | 37.94011 | 23.95728 | 295 ft | 3 kts | 351° |
| 2026-04-25 14:44 | 37.94012 | 23.95728 | 295 ft | 1 kts | 351° |
| 2026-04-25 14:44 | 37.94048 | 23.95694 | 297 ft | 8 kts | 311° |
| 2026-04-25 14:44 | 37.94092 | 23.95622 | 300 ft | 12 kts | 307° |
| 2026-04-25 14:45 | 37.94128 | 23.95561 | 300 ft | 6 kts | 308° |
| 2026-04-25 14:45 | 37.94149 | 23.95528 | 300 ft | 4 kts | 307° |
| 2026-04-25 14:45 | 37.94155 | 23.95488 | 300 ft | 6 kts | 253° |
| 2026-04-25 14:45 | 37.94130 | 23.95455 | 300 ft | 2 kts | 219° |
| 2026-04-25 14:46 | 37.94108 | 23.95434 | 300 ft | 5 kts | 217° |
| 2026-04-25 14:46 | 37.94090 | 23.95416 | 301 ft | 0 kts | 217° |